Terminal Aerodrome Forecast
Issued by NWS

Home | Current Version | Previous Version | Text Only | Print | Product List | Glossary On
Versions: 1 2 3 4 5 6 7 8 9 10 11 12 13 14 15 16 17 18 19 20 21 22 23 24 25 26 27 28 29 30 31
000
FTUS45 KGJT 221046 AAB
TAFVEL
TAF AMD
KVEL 221046Z 2211/2306 30005KT 1/4SM FG OVC002
      TEMPO 2211/2214 2SM BR BKN003 OVC015
     FM221400 VRB02KT 3SM BR SCT003 BKN015
     FM221600 VRB03KT P6SM VCSH FEW025 BKN080
     FM221900 23007KT P6SM SCT100 BKN200
     FM230200 34004KT P6SM SCT110=

USA.gov is the U.S. government's official web portal to all federal, state and local government web resources and services.